createdAt,value
2022-10-14T00:00:50.025Z,10.80
2022-10-14T00:01:51.747Z,10.90
2022-10-14T00:02:53.426Z,10.90
2022-10-14T00:03:55.140Z,10.90
2022-10-14T00:04:56.779Z,10.90
2022-10-14T00:05:58.468Z,10.90
2022-10-14T00:07:00.154Z,10.80
2022-10-14T00:08:01.880Z,10.80
2022-10-14T00:09:08.623Z,10.80
2022-10-14T00:10:10.292Z,10.80
2022-10-14T00:11:14.734Z,10.80
2022-10-14T00:12:16.384Z,10.80
2022-10-14T00:13:18.142Z,10.80
2022-10-14T00:14:21.766Z,10.80
2022-10-14T00:15:23.629Z,10.80
2022-10-14T00:16:28.693Z,10.90
2022-10-14T00:17:30.362Z,10.80
2022-10-14T00:18:32.151Z,10.90
2022-10-14T00:19:33.852Z,10.90
2022-10-14T00:20:36.136Z,10.80
2022-10-14T00:21:40.044Z,10.90
2022-10-14T00:22:41.676Z,10.90
2022-10-14T00:23:44.566Z,10.90
2022-10-14T00:24:46.217Z,10.90
2022-10-14T00:25:47.898Z,10.90
2022-10-14T00:26:49.553Z,10.90
2022-10-14T00:27:51.240Z,10.90
2022-10-14T00:28:53.230Z,10.90
2022-10-14T00:29:55.047Z,10.90
2022-10-14T00:30:58.697Z,11.00
2022-10-14T00:32:00.378Z,11.00
2022-10-14T00:33:02.112Z,11.00
2022-10-14T00:34:04.101Z,11.00
2022-10-14T00:35:06.236Z,11.00
2022-10-14T00:36:08.634Z,11.00
2022-10-14T00:37:10.316Z,11.00
2022-10-14T00:38:11.936Z,10.90
2022-10-14T00:39:13.687Z,10.90
2022-10-14T00:40:15.401Z,10.90
2022-10-14T00:41:23.494Z,10.90
2022-10-14T00:42:25.382Z,10.90
2022-10-14T00:43:28.850Z,10.90
2022-10-14T00:44:31.324Z,11.00
2022-10-14T00:45:32.980Z,11.00
2022-10-14T00:46:40.311Z,11.00
2022-10-14T00:47:43.790Z,11.00
2022-10-14T00:48:45.447Z,11.00
2022-10-14T00:49:47.123Z,11.10
2022-10-14T00:50:53.118Z,11.10
2022-10-14T00:52:02.011Z,11.10
2022-10-14T00:53:04.402Z,11.10
2022-10-14T00:54:07.286Z,11.10
2022-10-14T00:55:14.587Z,11.10
2022-10-14T00:56:19.797Z,11.20
2022-10-14T00:57:22.869Z,11.20
2022-10-14T00:58:24.910Z,11.20
2022-10-14T00:59:26.877Z,11.20
2022-10-14T01:00:28.699Z,11.20
2022-10-14T01:01:30.582Z,11.20
2022-10-14T01:02:32.482Z,11.20
2022-10-14T01:03:34.542Z,11.20
2022-10-14T01:04:40.711Z,11.20
2022-10-14T01:05:54.632Z,11.20
2022-10-14T01:07:01.828Z,11.20
2022-10-14T01:08:14.715Z,11.20
2022-10-14T01:09:43.492Z,11.20
2022-10-14T01:10:59.197Z,11.20
2022-10-14T01:12:29.049Z,11.20
2022-10-14T01:13:37.012Z,11.10
2022-10-14T01:14:59.463Z,11.10
2022-10-14T01:16:20.350Z,11.00
2022-10-14T01:17:55.761Z,10.90
2022-10-14T01:19:26.945Z,10.90
2022-10-14T01:21:14.378Z,10.90
2022-10-14T01:22:35.188Z,10.90
2022-10-14T01:23:55.595Z,10.90
2022-10-14T01:25:09.303Z,10.90
2022-10-14T01:26:48.568Z,10.90
2022-10-14T01:28:20.565Z,10.90
2022-10-14T01:29:43.514Z,10.90
2022-10-14T01:30:52.133Z,11.00
2022-10-14T01:32:11.526Z,11.00
2022-10-14T01:33:25.244Z,11.00
2022-10-14T01:34:36.175Z,11.00
2022-10-14T01:35:55.948Z,11.00
2022-10-14T01:37:07.600Z,11.10
2022-10-14T01:38:16.164Z,11.10
2022-10-14T01:39:35.917Z,11.10
2022-10-14T01:41:02.329Z,11.10
2022-10-14T01:42:21.749Z,11.10
2022-10-14T01:43:27.386Z,11.10
2022-10-14T01:44:30.971Z,11.10
2022-10-14T01:45:36.427Z,11.10
2022-10-14T01:46:40.555Z,11.10
2022-10-14T01:47:43.598Z,11.10
2022-10-14T01:48:49.135Z,11.10
2022-10-14T01:49:57.725Z,11.10
2022-10-14T01:51:02.725Z,11.10
2022-10-14T01:52:10.444Z,11.10
2022-10-14T01:53:17.828Z,11.10
2022-10-14T01:54:27.351Z,11.10
2022-10-14T01:55:35.170Z,11.10
2022-10-14T01:56:40.549Z,11.10
2022-10-14T01:57:44.569Z,11.10
2022-10-14T01:58:46.636Z,11.10
2022-10-14T01:59:49.464Z,11.10
2022-10-14T02:00:51.153Z,11.10
2022-10-14T02:01:52.856Z,11.10
2022-10-14T02:02:54.569Z,11.10
2022-10-14T02:03:56.210Z,11.20
2022-10-14T02:04:57.880Z,11.10
2022-10-14T02:06:07.039Z,11.20
2022-10-14T02:07:27.968Z,11.20
2022-10-14T02:08:58.289Z,11.20
2022-10-14T02:10:21.109Z,11.20
2022-10-14T02:11:23.442Z,11.10
2022-10-14T02:13:21.308Z,11.10
2022-10-14T02:14:57.569Z,11.10
2022-10-14T02:16:19.923Z,11.10
2022-10-14T02:17:24.891Z,11.20
2022-10-14T02:18:43.329Z,11.20
2022-10-14T02:19:52.573Z,11.20
2022-10-14T02:21:01.755Z,11.20
2022-10-14T02:22:29.785Z,11.20
2022-10-14T02:23:44.260Z,11.20
2022-10-14T02:24:53.136Z,11.20
2022-10-14T02:25:55.603Z,11.20
2022-10-14T02:27:01.274Z,11.20
2022-10-14T02:28:08.004Z,11.20
2022-10-14T02:29:09.739Z,11.20
2022-10-14T02:30:12.331Z,11.20
2022-10-14T02:31:18.629Z,11.20
2022-10-14T02:32:22.418Z,11.20
2022-10-14T02:33:31.021Z,11.20
2022-10-14T02:34:33.820Z,11.20
2022-10-14T02:35:38.723Z,11.20
2022-10-14T02:36:42.052Z,11.20
2022-10-14T02:37:45.920Z,11.20
2022-10-14T02:38:49.465Z,11.20
2022-10-14T02:40:07.548Z,11.20
2022-10-14T02:41:15.071Z,11.20
2022-10-14T02:42:17.676Z,11.30
2022-10-14T02:43:19.507Z,11.20
2022-10-14T02:44:21.152Z,11.20
2022-10-14T02:45:27.053Z,11.20
2022-10-14T02:46:29.163Z,11.20
2022-10-14T02:47:30.817Z,11.20
2022-10-14T02:48:32.674Z,11.20
2022-10-14T02:49:34.331Z,11.30
2022-10-14T02:50:36.389Z,11.30
2022-10-14T02:51:38.232Z,11.30
2022-10-14T02:52:39.882Z,11.30
2022-10-14T02:53:41.515Z,11.30
2022-10-14T02:54:43.272Z,11.30
2022-10-14T02:55:44.914Z,11.30
2022-10-14T02:56:46.607Z,11.30
2022-10-14T02:57:48.293Z,11.30
2022-10-14T02:58:49.976Z,11.30
2022-10-14T02:59:51.631Z,11.30
2022-10-14T03:00:53.298Z,11.30
2022-10-14T03:01:54.991Z,11.30
2022-10-14T03:02:56.746Z,11.30
2022-10-14T03:03:58.579Z,11.30
2022-10-14T03:05:00.213Z,11.20
2022-10-14T03:06:02.093Z,11.20
2022-10-14T03:07:04.098Z,11.20
2022-10-14T03:08:05.806Z,11.20
2022-10-14T03:09:07.480Z,11.10
2022-10-14T03:10:09.272Z,11.10
2022-10-14T03:11:10.979Z,11.10
2022-10-14T03:12:12.667Z,11.10
2022-10-14T03:13:14.593Z,11.10
2022-10-14T03:14:16.361Z,11.10
2022-10-14T03:15:18.067Z,11.10
2022-10-14T03:16:19.776Z,11.20
2022-10-14T03:17:21.448Z,11.20
2022-10-14T03:18:23.210Z,11.20
2022-10-14T03:19:25.052Z,11.20
2022-10-14T03:20:26.718Z,11.20
2022-10-14T03:21:28.408Z,11.20
2022-10-14T03:22:30.111Z,11.20
2022-10-14T03:23:31.766Z,11.20
2022-10-14T03:24:33.461Z,11.20
2022-10-14T03:25:35.095Z,11.20
2022-10-14T03:26:36.821Z,11.20
2022-10-14T03:27:38.510Z,11.20
2022-10-14T03:28:40.241Z,11.20
2022-10-14T03:29:41.942Z,11.20
2022-10-14T03:30:43.618Z,11.20
2022-10-14T03:31:45.401Z,11.20
2022-10-14T03:32:47.044Z,11.20
2022-10-14T03:33:48.700Z,11.20
2022-10-14T03:34:50.336Z,11.20
2022-10-14T03:35:52.009Z,11.20
2022-10-14T03:36:53.809Z,11.20
2022-10-14T03:37:55.527Z,11.20
2022-10-14T03:38:57.209Z,11.30
2022-10-14T03:39:58.881Z,11.30
2022-10-14T03:41:00.541Z,11.30
2022-10-14T03:42:03.083Z,11.30
2022-10-14T03:43:04.800Z,11.20
2022-10-14T03:44:06.645Z,11.20
2022-10-14T03:45:08.631Z,11.30
2022-10-14T03:46:10.278Z,11.30
2022-10-14T03:47:12.029Z,11.30
2022-10-14T03:48:13.665Z,11.30
2022-10-14T03:49:15.307Z,11.20
2022-10-14T03:50:16.965Z,11.20
2022-10-14T03:51:18.675Z,11.30
2022-10-14T03:52:20.736Z,11.30
2022-10-14T03:53:22.618Z,11.30
2022-10-14T03:54:24.300Z,11.30
2022-10-14T03:55:26.052Z,11.30
2022-10-14T03:56:27.817Z,11.30
2022-10-14T03:57:29.533Z,11.30
2022-10-14T03:58:31.220Z,11.30
2022-10-14T03:59:32.973Z,11.30
2022-10-14T04:00:35.740Z,11.30
2022-10-14T04:01:37.575Z,11.30
2022-10-14T04:02:39.235Z,11.30
2022-10-14T04:03:46.582Z,11.30
2022-10-14T04:04:48.248Z,11.30
2022-10-14T04:05:49.902Z,11.30
2022-10-14T04:06:51.626Z,11.30
2022-10-14T04:07:53.330Z,11.20
2022-10-14T04:08:54.980Z,11.20
2022-10-14T04:09:56.894Z,11.20
2022-10-14T04:10:58.885Z,11.20
2022-10-14T04:12:00.621Z,11.20
2022-10-14T04:13:02.253Z,11.20
2022-10-14T04:14:03.927Z,11.20
2022-10-14T04:15:07.059Z,11.20
2022-10-14T04:16:10.483Z,11.20
2022-10-14T04:17:12.151Z,11.20
2022-10-14T04:18:13.877Z,11.20
2022-10-14T04:19:15.600Z,11.20
2022-10-14T04:20:17.707Z,11.20
2022-10-14T04:21:19.718Z,11.20
2022-10-14T04:22:23.282Z,11.20
2022-10-14T04:23:25.205Z,11.20
2022-10-14T04:24:26.859Z,11.20
2022-10-14T04:25:28.501Z,11.20
2022-10-14T04:26:30.180Z,11.20
2022-10-14T04:27:32.676Z,11.20
2022-10-14T04:28:35.288Z,11.20
2022-10-14T04:29:37.007Z,11.20
2022-10-14T04:30:38.657Z,11.20
2022-10-14T04:31:40.301Z,11.20
2022-10-14T04:32:41.972Z,11.20
2022-10-14T04:33:43.632Z,11.20
2022-10-14T04:34:45.277Z,11.20
2022-10-14T04:35:46.912Z,11.20
2022-10-14T04:36:48.725Z,11.20
2022-10-14T04:37:50.435Z,11.20
2022-10-14T04:38:52.112Z,11.20
2022-10-14T04:39:53.770Z,11.20
2022-10-14T04:40:56.131Z,11.20
2022-10-14T04:41:57.795Z,11.20
2022-10-14T04:42:59.572Z,11.20
2022-10-14T04:44:01.262Z,11.20
2022-10-14T04:45:04.228Z,11.20
2022-10-14T04:46:05.993Z,11.20
2022-10-14T04:47:07.648Z,11.20
2022-10-14T04:48:09.379Z,11.30
2022-10-14T04:49:12.669Z,11.30
2022-10-14T04:50:14.431Z,11.30
2022-10-14T04:51:16.321Z,11.30
2022-10-14T04:52:17.939Z,11.30
2022-10-14T04:53:22.352Z,11.30
2022-10-14T04:54:24.299Z,11.30
2022-10-14T04:55:25.988Z,11.30
2022-10-14T04:56:27.637Z,11.30
2022-10-14T04:57:29.390Z,11.30
2022-10-14T04:58:31.042Z,11.30
2022-10-14T04:59:32.774Z,11.20
2022-10-14T05:00:34.424Z,11.20
2022-10-14T05:01:36.112Z,11.20
2022-10-14T05:02:38.015Z,11.20
2022-10-14T05:03:39.646Z,11.20
2022-10-14T05:04:41.327Z,11.20
2022-10-14T05:05:42.973Z,11.20
2022-10-14T05:06:44.711Z,11.20
2022-10-14T05:07:46.350Z,11.20
2022-10-14T05:08:48.032Z,11.20
2022-10-14T05:09:54.183Z,11.20
2022-10-14T05:10:57.927Z,11.10
2022-10-14T05:11:59.606Z,11.20
2022-10-14T05:13:01.632Z,11.20
2022-10-14T05:14:03.378Z,11.20
2022-10-14T05:15:05.991Z,11.10
2022-10-14T05:16:07.933Z,11.10
2022-10-14T05:17:09.829Z,11.10
2022-10-14T05:18:12.627Z,11.10
2022-10-14T05:19:14.368Z,11.10
2022-10-14T05:20:16.129Z,11.10
2022-10-14T05:21:17.768Z,11.10
2022-10-14T05:22:19.800Z,11.10
2022-10-14T05:23:21.669Z,11.10
2022-10-14T05:24:23.319Z,11.10
2022-10-14T05:25:24.964Z,11.10
2022-10-14T05:26:26.663Z,11.10
2022-10-14T05:27:28.505Z,11.10
2022-10-14T05:28:31.044Z,11.10
2022-10-14T05:29:32.806Z,11.10
2022-10-14T05:30:34.989Z,11.10
2022-10-14T05:31:37.067Z,11.10
2022-10-14T05:32:38.763Z,11.10
2022-10-14T05:33:40.438Z,11.10
2022-10-14T05:34:42.209Z,11.10
2022-10-14T05:35:58.617Z,11.10
2022-10-14T05:37:01.420Z,11.10
2022-10-14T05:38:04.457Z,11.10
2022-10-14T05:39:10.167Z,11.10
2022-10-14T05:40:12.129Z,11.10
2022-10-14T05:41:13.809Z,11.10
2022-10-14T05:42:15.483Z,11.10
2022-10-14T05:43:17.136Z,11.10
2022-10-14T05:44:18.783Z,11.10
2022-10-14T05:45:20.527Z,11.10
2022-10-14T05:46:22.158Z,11.10
2022-10-14T05:47:24.060Z,11.10
2022-10-14T05:48:25.776Z,11.10
2022-10-14T05:49:27.703Z,11.10
2022-10-14T05:50:29.378Z,11.20
2022-10-14T05:51:31.042Z,11.20
2022-10-14T05:52:34.321Z,11.20
2022-10-14T05:53:37.396Z,11.20
2022-10-14T05:54:39.214Z,11.20
2022-10-14T05:55:41.829Z,11.20
2022-10-14T05:56:43.536Z,11.20
2022-10-14T05:57:45.207Z,11.20
2022-10-14T05:58:47.042Z,11.20
2022-10-14T05:59:48.685Z,11.20
2022-10-14T06:00:50.334Z,11.20
2022-10-14T06:01:52.045Z,11.30
2022-10-14T06:02:54.041Z,11.20
2022-10-14T06:03:55.718Z,11.20
2022-10-14T06:04:58.476Z,11.30
2022-10-14T06:06:00.603Z,11.30
2022-10-14T06:07:03.202Z,11.30
2022-10-14T06:08:05.129Z,11.30
2022-10-14T06:09:11.196Z,11.30
2022-10-14T06:10:13.280Z,11.30
2022-10-14T06:11:14.987Z,11.30
2022-10-14T06:12:16.651Z,11.30
2022-10-14T06:13:19.338Z,11.40
2022-10-14T06:14:20.991Z,11.40
2022-10-14T06:15:22.680Z,11.40
2022-10-14T06:16:24.336Z,11.30
2022-10-14T06:17:26.043Z,11.40
2022-10-14T06:18:27.687Z,11.40
2022-10-14T06:19:30.989Z,11.30
2022-10-14T06:20:32.860Z,11.40
2022-10-14T06:21:34.565Z,11.40
2022-10-14T06:22:36.231Z,11.40
2022-10-14T06:23:37.884Z,11.40
2022-10-14T06:24:39.513Z,11.40
2022-10-14T06:25:41.230Z,11.40
2022-10-14T06:26:42.891Z,11.50
2022-10-14T06:27:44.551Z,11.50
2022-10-14T06:28:46.556Z,11.50
2022-10-14T06:29:48.259Z,11.50
2022-10-14T06:30:54.541Z,11.50
2022-10-14T06:31:56.197Z,11.60
2022-10-14T06:32:57.878Z,11.60
2022-10-14T06:34:00.035Z,11.60
2022-10-14T06:35:01.827Z,11.60
2022-10-14T06:36:04.775Z,11.60
2022-10-14T06:37:06.534Z,11.60
2022-10-14T06:38:08.221Z,11.60
2022-10-14T06:39:10.887Z,11.60
2022-10-14T06:40:12.550Z,11.60
2022-10-14T06:41:14.213Z,11.60
2022-10-14T06:42:15.907Z,11.60
2022-10-14T06:43:18.211Z,11.60
2022-10-14T06:44:20.869Z,11.60
2022-10-14T06:45:22.589Z,11.70
2022-10-14T06:46:25.550Z,11.60
2022-10-14T06:47:27.204Z,11.60
2022-10-14T06:48:29.386Z,11.70
2022-10-14T06:49:31.077Z,11.70
2022-10-14T06:50:32.856Z,11.70
2022-10-14T06:51:34.509Z,11.70
2022-10-14T06:52:36.221Z,11.70
2022-10-14T06:53:37.960Z,11.80
2022-10-14T06:54:41.040Z,11.70
2022-10-14T06:55:45.337Z,11.80
2022-10-14T06:56:46.982Z,11.80
2022-10-14T06:57:48.664Z,11.80
2022-10-14T06:58:54.736Z,11.80
2022-10-14T06:59:56.477Z,11.80
2022-10-14T07:01:03.131Z,11.80
2022-10-14T07:02:04.979Z,11.80
2022-10-14T07:03:06.728Z,11.90
2022-10-14T07:04:08.471Z,11.90
2022-10-14T07:05:10.474Z,11.90
2022-10-14T07:06:12.127Z,11.90
2022-10-14T07:07:14.031Z,11.90
2022-10-14T07:08:15.956Z,11.90
2022-10-14T07:09:17.990Z,12.00
2022-10-14T07:10:19.766Z,12.00
2022-10-14T07:11:21.496Z,12.00
2022-10-14T07:12:23.534Z,12.00
2022-10-14T07:13:25.341Z,12.00
2022-10-14T07:14:27.067Z,12.00
2022-10-14T07:15:33.738Z,12.00
2022-10-14T07:16:37.823Z,12.10
2022-10-14T07:17:39.845Z,12.10
2022-10-14T07:18:41.511Z,12.10
2022-10-14T07:19:43.299Z,12.10
2022-10-14T07:20:45.816Z,12.20
2022-10-14T07:21:47.479Z,12.20
2022-10-14T07:22:49.230Z,12.20
2022-10-14T07:23:50.873Z,12.20
2022-10-14T07:24:52.492Z,12.20
2022-10-14T07:25:57.241Z,12.20
2022-10-14T07:26:59.020Z,12.30
2022-10-14T07:28:01.212Z,12.30
2022-10-14T07:29:05.040Z,12.30
2022-10-14T07:30:07.389Z,12.30
2022-10-14T07:31:11.768Z,12.40
2022-10-14T07:32:13.423Z,12.40
2022-10-14T07:33:15.081Z,12.40
2022-10-14T07:34:17.006Z,12.40
2022-10-14T07:35:21.584Z,12.50
2022-10-14T07:36:23.416Z,12.50
2022-10-14T07:37:25.250Z,12.50
2022-10-14T07:38:27.124Z,12.60
2022-10-14T07:39:29.036Z,12.60
2022-10-14T07:40:30.747Z,12.60
2022-10-14T07:41:33.147Z,12.60
2022-10-14T07:42:34.921Z,12.60
2022-10-14T07:43:36.670Z,12.60
2022-10-14T07:44:39.818Z,12.70
2022-10-14T07:45:44.037Z,12.70
2022-10-14T07:46:46.287Z,12.80
2022-10-14T07:47:50.371Z,12.80
2022-10-14T07:48:57.064Z,12.80
2022-10-14T07:50:03.750Z,12.80
2022-10-14T07:51:07.413Z,12.80
2022-10-14T07:52:09.051Z,12.90
2022-10-14T07:53:10.693Z,12.90
2022-10-14T07:54:16.104Z,12.90
2022-10-14T07:55:17.853Z,13.00
2022-10-14T07:56:20.761Z,13.00
2022-10-14T07:57:23.630Z,13.00
2022-10-14T07:58:28.445Z,13.10
2022-10-14T07:59:30.119Z,13.10
2022-10-14T08:00:31.758Z,13.10
2022-10-14T08:01:33.835Z,13.10
2022-10-14T08:02:35.811Z,13.20
2022-10-14T08:03:37.515Z,13.20
2022-10-14T08:04:39.658Z,13.20
2022-10-14T08:05:41.366Z,13.30
2022-10-14T08:06:43.083Z,13.30
2022-10-14T08:07:44.774Z,13.40
2022-10-14T08:08:46.422Z,13.40
2022-10-14T08:09:48.656Z,13.40
2022-10-14T08:10:50.423Z,13.50
2022-10-14T08:11:52.201Z,13.50
2022-10-14T08:12:53.894Z,13.60
2022-10-14T08:13:57.613Z,13.60
2022-10-14T08:14:59.351Z,13.60
2022-10-14T08:16:01.373Z,13.70
2022-10-14T08:17:03.097Z,13.70
2022-10-14T08:18:07.131Z,13.70
2022-10-14T08:19:14.274Z,13.70
2022-10-14T08:20:16.445Z,13.70
2022-10-14T08:21:19.701Z,13.70
2022-10-14T08:22:21.509Z,13.70
2022-10-14T08:23:23.371Z,13.70
2022-10-14T08:24:25.063Z,13.70
2022-10-14T08:25:27.592Z,13.70
2022-10-14T08:26:40.952Z,13.70
2022-10-14T08:27:42.849Z,13.80
2022-10-14T08:28:44.639Z,13.80
2022-10-14T08:29:46.331Z,13.80
2022-10-14T08:30:48.270Z,13.80
2022-10-14T08:31:51.458Z,13.90
2022-10-14T08:32:53.188Z,13.80
2022-10-14T08:33:54.863Z,13.80
2022-10-14T08:34:56.510Z,13.80
2022-10-14T08:35:58.244Z,13.80
2022-10-14T08:37:01.310Z,13.80
2022-10-14T08:38:03.094Z,13.80
2022-10-14T08:39:05.792Z,13.90
2022-10-14T08:40:08.321Z,13.90
2022-10-14T08:41:12.943Z,13.90
2022-10-14T08:42:34.568Z,13.90
2022-10-14T08:44:10.782Z,14.00
2022-10-14T08:45:20.216Z,14.00
2022-10-14T08:46:30.937Z,14.00
2022-10-14T08:47:39.246Z,14.10
2022-10-14T08:48:41.273Z,14.10
2022-10-14T08:49:45.969Z,14.10
2022-10-14T08:50:59.525Z,14.10
2022-10-14T08:52:10.737Z,14.10
2022-10-14T08:53:27.534Z,14.10
2022-10-14T08:54:49.461Z,14.10
2022-10-14T08:55:56.137Z,14.10
2022-10-14T08:56:58.904Z,14.10
2022-10-14T08:58:13.776Z,14.10
2022-10-14T08:59:19.980Z,14.10
2022-10-14T09:00:22.484Z,14.10
2022-10-14T09:01:31.086Z,14.10
2022-10-14T09:02:52.012Z,14.20
2022-10-14T09:04:13.416Z,14.20
2022-10-14T09:05:22.092Z,14.30
2022-10-14T09:06:29.238Z,14.30
2022-10-14T09:07:34.273Z,14.40
2022-10-14T09:08:41.987Z,14.40
2022-10-14T09:09:45.899Z,14.40
2022-10-14T09:10:48.112Z,14.40
2022-10-14T09:12:02.704Z,14.50
2022-10-14T09:13:18.933Z,14.50
2022-10-14T09:14:24.971Z,14.60
2022-10-14T09:15:41.190Z,14.60
2022-10-14T09:16:46.703Z,14.60
2022-10-14T09:18:26.327Z,14.70
2022-10-14T09:19:32.580Z,14.80
2022-10-14T09:20:34.284Z,14.80
2022-10-14T09:21:54.495Z,14.80
2022-10-14T09:23:08.160Z,14.90
2022-10-14T09:24:23.381Z,14.90
2022-10-14T09:25:25.125Z,14.90
2022-10-14T09:26:35.340Z,15.00
2022-10-14T09:27:38.171Z,15.10
2022-10-14T09:28:43.453Z,15.20
2022-10-14T09:29:54.226Z,15.20
2022-10-14T09:30:55.938Z,15.30
2022-10-14T09:32:06.953Z,15.30
2022-10-14T09:33:17.611Z,15.40
2022-10-14T09:34:25.893Z,15.40
2022-10-14T09:35:35.131Z,15.40
2022-10-14T09:36:36.779Z,15.50
2022-10-14T09:37:39.409Z,15.60
2022-10-14T09:38:41.360Z,15.60
2022-10-14T09:39:43.114Z,15.60
2022-10-14T09:40:47.994Z,15.70
2022-10-14T09:41:53.280Z,15.70
2022-10-14T09:43:09.987Z,15.70
2022-10-14T09:44:25.927Z,15.80
2022-10-14T09:45:30.931Z,15.90
2022-10-14T09:46:32.605Z,15.90
2022-10-14T09:47:49.695Z,16.00
2022-10-14T09:48:52.431Z,16.00
2022-10-14T09:49:56.094Z,16.10
2022-10-14T09:50:59.557Z,16.10
2022-10-14T09:52:02.665Z,16.20
2022-10-14T09:53:14.731Z,16.20
2022-10-14T09:54:24.419Z,16.30
2022-10-14T09:55:26.235Z,16.30
2022-10-14T09:56:38.951Z,16.30
2022-10-14T09:57:44.622Z,16.30
2022-10-14T09:58:51.076Z,16.30
2022-10-14T10:00:00.635Z,16.30
2022-10-14T10:01:03.184Z,16.40
2022-10-14T10:02:05.691Z,16.40
2022-10-14T10:03:07.776Z,16.40
2022-10-14T10:04:41.900Z,16.40
2022-10-14T10:05:43.649Z,16.50
2022-10-14T10:06:54.079Z,16.50
2022-10-14T10:08:18.030Z,16.50
2022-10-14T10:09:20.212Z,16.50
2022-10-14T10:10:22.727Z,16.50
2022-10-14T10:11:28.366Z,16.50
2022-10-14T10:12:32.721Z,16.50
2022-10-14T10:13:40.087Z,16.50
2022-10-14T10:14:41.739Z,16.50
2022-10-14T10:16:01.368Z,16.60
2022-10-14T10:17:09.818Z,16.60
2022-10-14T10:18:20.544Z,16.60
2022-10-14T10:19:31.942Z,16.60
2022-10-14T10:20:33.852Z,16.60
2022-10-14T10:21:36.789Z,16.60
2022-10-14T10:22:39.010Z,16.60
2022-10-14T10:23:54.257Z,16.60
2022-10-14T10:25:08.174Z,16.60
2022-10-14T10:26:29.395Z,16.50
2022-10-14T10:27:36.355Z,16.50
2022-10-14T10:28:45.867Z,16.50
2022-10-14T10:29:47.754Z,16.50
2022-10-14T10:31:27.311Z,16.60
2022-10-14T10:32:34.914Z,16.60
2022-10-14T10:33:46.230Z,16.70
2022-10-14T10:35:12.241Z,16.80
2022-10-14T10:36:15.325Z,16.80
2022-10-14T10:37:33.409Z,16.90
2022-10-14T10:38:59.379Z,17.00
2022-10-14T10:40:29.182Z,17.10
2022-10-14T10:41:53.346Z,17.20
2022-10-14T10:43:13.961Z,17.20
2022-10-14T10:44:30.169Z,17.20
2022-10-14T10:45:38.030Z,17.20
2022-10-14T10:47:02.513Z,17.20
2022-10-14T10:48:27.817Z,17.20
2022-10-14T10:51:13.185Z,17.00
2022-10-14T10:52:34.201Z,17.00
2022-10-14T10:53:55.529Z,16.90
2022-10-14T10:55:24.934Z,16.90
2022-10-14T10:56:50.547Z,17.00
2022-10-14T10:58:30.580Z,17.10
2022-10-14T11:00:21.034Z,17.10
2022-10-14T11:01:47.967Z,17.20
2022-10-14T11:02:57.760Z,17.30
2022-10-14T11:04:18.270Z,17.50
2022-10-14T11:05:41.226Z,17.70
2022-10-14T11:07:11.573Z,17.70
2022-10-14T11:09:06.979Z,17.80
2022-10-14T11:10:51.927Z,17.70
2022-10-14T11:12:12.833Z,17.70
2022-10-14T11:13:33.597Z,17.60
2022-10-14T11:15:06.166Z,17.60
2022-10-14T11:16:36.609Z,17.50
2022-10-14T11:17:51.876Z,17.40
2022-10-14T11:19:16.089Z,17.50
2022-10-14T11:20:23.539Z,17.40
2022-10-14T11:21:39.430Z,17.50
2022-10-14T11:23:06.636Z,17.50
2022-10-14T11:25:55.361Z,17.40
2022-10-14T11:27:21.013Z,17.40
2022-10-14T11:28:30.208Z,17.40
2022-10-14T11:29:53.816Z,17.50
2022-10-14T11:31:17.088Z,17.50
2022-10-14T11:32:49.157Z,17.50
2022-10-14T11:34:06.194Z,17.40
2022-10-14T11:36:58.342Z,17.40
2022-10-14T11:38:24.656Z,17.50
2022-10-14T11:39:50.151Z,17.50
2022-10-14T11:41:12.052Z,17.40
2022-10-14T11:42:47.470Z,17.40
2022-10-14T11:43:58.458Z,17.50
2022-10-14T11:45:27.914Z,17.60
2022-10-14T11:46:36.486Z,17.70
2022-10-14T11:47:40.596Z,17.80
2022-10-14T11:48:58.550Z,17.90
2022-10-14T11:50:06.620Z,17.90
2022-10-14T11:51:16.145Z,18.00
2022-10-14T11:52:27.576Z,18.00
2022-10-14T11:53:55.219Z,18.10
2022-10-14T11:55:14.761Z,18.10
2022-10-14T11:56:37.497Z,18.20
2022-10-14T11:57:56.666Z,18.20
2022-10-14T11:59:25.354Z,18.20
2022-10-14T12:00:32.623Z,18.20
2022-10-14T12:01:42.028Z,18.30
2022-10-14T12:02:53.805Z,18.30
2022-10-14T12:04:13.800Z,18.20
2022-10-14T12:05:37.651Z,18.20
2022-10-14T12:06:48.644Z,18.10
2022-10-14T12:08:02.179Z,18.10
2022-10-14T12:09:14.510Z,18.00
2022-10-14T12:10:42.241Z,17.90
2022-10-14T12:11:49.233Z,17.80
2022-10-14T12:12:51.810Z,17.60
2022-10-14T12:14:11.637Z,17.50
2022-10-14T12:15:20.301Z,17.50
2022-10-14T12:16:24.211Z,17.50
2022-10-14T12:17:54.926Z,17.40
2022-10-14T12:18:57.958Z,17.50
2022-10-14T12:20:15.254Z,17.40
2022-10-14T12:21:27.979Z,17.40
2022-10-14T12:22:32.255Z,17.40
2022-10-14T12:23:43.505Z,17.40
2022-10-14T12:25:07.717Z,17.40
2022-10-14T12:26:24.509Z,17.40
2022-10-14T12:27:28.495Z,17.40
2022-10-14T12:28:30.818Z,17.50
2022-10-14T12:29:41.037Z,17.50
2022-10-14T12:30:43.072Z,17.50
2022-10-14T12:32:16.735Z,17.60
2022-10-14T12:33:22.543Z,17.60
2022-10-14T12:34:31.224Z,17.60
2022-10-14T12:35:54.431Z,17.60
2022-10-14T12:36:56.195Z,17.60
2022-10-14T12:38:03.573Z,17.60
2022-10-14T12:39:17.103Z,17.60
2022-10-14T12:40:27.593Z,17.70
2022-10-14T12:41:36.395Z,17.70
2022-10-14T12:42:44.311Z,17.60
2022-10-14T12:44:02.997Z,17.60
2022-10-14T12:45:23.137Z,17.60
2022-10-14T12:46:24.913Z,17.70
2022-10-14T12:47:34.864Z,17.70
2022-10-14T12:48:38.703Z,17.70
2022-10-14T12:49:40.361Z,17.80
2022-10-14T12:50:44.350Z,17.80
2022-10-14T12:52:07.389Z,17.80
2022-10-14T12:53:25.903Z,17.90
2022-10-14T12:54:28.880Z,17.90
2022-10-14T12:55:33.040Z,17.80
2022-10-14T12:56:43.314Z,17.80
2022-10-14T12:57:55.024Z,17.80
2022-10-14T12:59:03.875Z,17.70
2022-10-14T13:00:28.995Z,17.60
2022-10-14T13:01:35.286Z,17.70
2022-10-14T13:02:44.965Z,17.70
2022-10-14T13:03:58.496Z,17.60
2022-10-14T13:05:09.600Z,17.60
2022-10-14T13:06:35.461Z,17.60
2022-10-14T13:07:50.525Z,17.60
2022-10-14T13:09:11.180Z,17.50
2022-10-14T13:10:41.858Z,17.50
2022-10-14T13:12:21.571Z,17.50
2022-10-14T13:13:58.870Z,17.50
2022-10-14T13:15:03.161Z,17.60
2022-10-14T13:16:09.790Z,17.60
2022-10-14T13:17:42.324Z,17.70
2022-10-14T13:18:44.362Z,17.70
2022-10-14T13:19:46.398Z,17.70
2022-10-14T13:20:50.973Z,17.70
2022-10-14T13:21:53.513Z,17.70
2022-10-14T13:23:15.123Z,17.80
2022-10-14T13:24:28.587Z,17.80
2022-10-14T13:25:30.673Z,17.70
2022-10-14T13:26:54.838Z,17.80
2022-10-14T13:28:09.407Z,17.80
2022-10-14T13:29:20.134Z,17.80
2022-10-14T13:30:33.887Z,17.90
2022-10-14T13:31:43.787Z,17.90
2022-10-14T13:32:48.326Z,18.00
2022-10-14T13:34:12.649Z,18.00
2022-10-14T13:35:26.340Z,18.10
2022-10-14T13:36:38.938Z,18.10
2022-10-14T13:37:54.480Z,18.20
2022-10-14T13:38:59.724Z,18.20
2022-10-14T13:40:34.461Z,18.20
2022-10-14T13:41:37.860Z,18.10
2022-10-14T13:42:40.005Z,18.10
2022-10-14T13:43:43.208Z,18.10
2022-10-14T13:44:44.984Z,18.20
2022-10-14T13:45:48.618Z,18.20
2022-10-14T13:46:50.491Z,18.20
2022-10-14T13:47:53.943Z,18.20
2022-10-14T13:49:00.605Z,18.20
2022-10-14T13:50:05.099Z,18.20
2022-10-14T13:51:47.886Z,18.20
2022-10-14T13:52:56.945Z,18.20
2022-10-14T13:54:08.797Z,18.10
2022-10-14T13:55:15.260Z,18.00
2022-10-14T13:56:23.525Z,18.00
2022-10-14T13:58:46.856Z,17.90
2022-10-14T14:01:18.055Z,17.80
2022-10-14T14:02:25.586Z,17.80
2022-10-14T14:03:37.830Z,17.80
2022-10-14T14:04:39.901Z,17.80
2022-10-14T14:05:42.211Z,17.80
2022-10-14T14:07:00.483Z,17.80
2022-10-14T14:09:30.681Z,17.80
2022-10-14T14:10:34.579Z,17.80
2022-10-14T14:11:46.570Z,17.80
2022-10-14T14:12:49.875Z,17.80
2022-10-14T14:14:00.841Z,17.80
2022-10-14T14:15:04.696Z,17.80
2022-10-14T14:16:06.630Z,17.70
2022-10-14T14:17:19.282Z,17.80
2022-10-14T14:18:33.831Z,17.70
2022-10-14T14:19:46.901Z,17.70
2022-10-14T14:20:59.559Z,17.70
2022-10-14T14:22:21.080Z,17.70
2022-10-14T14:23:22.799Z,17.70
2022-10-14T14:24:25.638Z,17.70
2022-10-14T14:25:34.463Z,17.70
2022-10-14T14:26:38.919Z,17.80
2022-10-14T14:28:06.988Z,17.70
2022-10-14T14:29:20.289Z,17.80
2022-10-14T14:30:34.036Z,17.80
2022-10-14T14:32:05.029Z,17.80
2022-10-14T14:33:03.088Z,17.80
2022-10-14T14:34:05.161Z,17.80
2022-10-14T14:35:12.765Z,17.80
2022-10-14T14:36:27.592Z,17.80
2022-10-14T14:39:01.814Z,17.80